Time;durP1;ratioP1;P1;durP2;ratioP2;P2;SDS_P1;SDS_P2;PMS_P1;PMS_P2;Temp;Humidity;BMP_temperature;BMP_pressure;BME280_temperature;BME280_humidity;BME280_pressure;Samples;Min_cycle;Max_cycle;Signal;HPM_P1;HPM_P2
2022/07/26 00:00:22;;;;;;;61.65;50.45;;;25.40;53.90;;;;;;4976232;27;96315;-71
2022/07/26 00:02:48;;;;;;;62.00;50.50;;;25.40;53.90;;;;;;4987771;27;95747;-71
2022/07/26 00:05:15;;;;;;;60.70;50.25;;;25.40;53.90;;;;;;5016129;27;95529;-71
2022/07/26 00:07:40;;;;;;;60.50;50.15;;;25.40;54.00;;;;;;4984049;27;96989;-70
2022/07/26 00:10:07;;;;;;;60.63;50.45;;;25.40;54.00;;;;;;5000747;27;94712;-70
2022/07/26 00:12:32;;;;;;;62.08;50.35;;;25.40;54.10;;;;;;4993495;27;100928;-71
2022/07/26 00:14:58;;;;;;;62.35;50.70;;;25.40;54.00;;;;;;4998729;27;95973;-71
2022/07/26 00:17:24;;;;;;;60.17;50.08;;;25.40;54.00;;;;;;4976393;27;97476;-71
2022/07/26 00:19:50;;;;;;;62.30;50.10;;;25.40;54.10;;;;;;5000283;27;95484;-71
2022/07/26 00:22:34;;;;;;;62.08;50.35;;;25.40;54.10;;;;;;4999366;27;96310;-71
2022/07/26 00:25:03;;;;;;;60.90;50.33;;;25.40;54.10;;;;;;5011395;27;95396;-70
2022/07/26 00:27:29;;;;;;;60.65;50.25;;;25.30;54.00;;;;;;4997736;27;95467;-71
2022/07/26 00:29:55;;;;;;;60.88;50.05;;;25.30;54.10;;;;;;4988225;27;94280;-71
2022/07/26 00:32:20;;;;;;;60.65;50.25;;;25.30;54.20;;;;;;4962172;27;97135;-71
2022/07/26 00:34:46;;;;;;;61.00;50.25;;;25.30;54.10;;;;;;4978811;27;97759;-70
2022/07/26 00:37:11;;;;;;;60.65;50.15;;;25.30;54.10;;;;;;4988760;27;96056;-70
2022/07/26 00:39:37;;;;;;;60.90;50.20;;;25.30;54.10;;;;;;4992508;27;96229;-70
2022/07/26 00:42:03;;;;;;;61.97;50.15;;;25.30;54.10;;;;;;5004052;27;99190;-71
2022/07/26 00:44:40;;;;;;;61.80;50.25;;;25.30;54.20;;;;;;5008465;27;96083;-70
2022/07/26 00:47:05;;;;;;;60.47;50.05;;;25.30;54.20;;;;;;4993931;27;95219;-70
2022/07/26 00:49:31;;;;;;;61.22;50.20;;;25.30;54.10;;;;;;4998523;27;95154;-70
2022/07/26 00:51:57;;;;;;;61.15;50.35;;;25.30;54.20;;;;;;5002515;27;96313;-71
2022/07/26 00:54:22;;;;;;;61.85;49.88;;;25.30;54.10;;;;;;4991273;27;95618;-71
2022/07/26 00:56:49;;;;;;;60.22;50.10;;;25.20;54.20;;;;;;4997122;27;98212;-71
2022/07/26 00:59:14;;;;;;;60.95;50.33;;;25.20;54.20;;;;;;4988645;28;100172;-71
2022/07/26 01:01:40;;;;;;;60.80;50.30;;;25.20;54.70;;;;;;5013449;27;96007;-71
2022/07/26 01:04:06;;;;;;;62.38;50.30;;;25.30;54.20;;;;;;4994221;27;97087;-71
2022/07/26 01:06:31;;;;;;;61.47;50.25;;;25.30;54.30;;;;;;4989998;27;95595;-71
2022/07/26 01:08:57;;;;;;;62.00;50.25;;;25.30;54.30;;;;;;4996439;27;95283;-71
2022/07/26 01:11:23;;;;;;;60.15;50.13;;;25.30;54.30;;;;;;5000046;27;97025;-71
2022/07/26 01:13:50;;;;;;;60.78;50.40;;;25.30;54.30;;;;;;4995269;27;96093;-70
2022/07/26 01:16:16;;;;;;;61.58;50.40;;;25.20;54.30;;;;;;5001866;27;95492;-71
2022/07/26 01:18:43;;;;;;;61.58;50.08;;;25.20;54.30;;;;;;4997608;27;94291;-71
2022/07/26 01:21:09;;;;;;;61.47;50.45;;;25.20;54.30;;;;;;4985760;27;95309;-71
2022/07/26 01:23:36;;;;;;;60.08;50.00;;;25.20;54.30;;;;;;4984678;27;95958;-71
2022/07/26 01:26:02;;;;;;;60.28;50.25;;;25.20;54.30;;;;;;4967020;27;96717;-71
2022/07/26 01:28:28;;;;;;;61.33;50.13;;;25.20;54.30;;;;;;4981414;27;95113;-71
2022/07/26 01:30:54;;;;;;;60.42;49.92;;;25.20;54.30;;;;;;5002387;27;98635;-71
2022/07/26 01:33:20;;;;;;;62.17;50.25;;;25.20;54.40;;;;;;4986174;27;95432;-71
2022/07/26 01:35:45;;;;;;;60.85;50.08;;;25.20;54.40;;;;;;4987815;27;95929;-71
2022/07/26 01:38:12;;;;;;;61.42;50.35;;;25.20;54.30;;;;;;4975315;27;95757;-71
2022/07/26 01:40:38;;;;;;;61.85;50.33;;;25.20;54.30;;;;;;4996484;27;101256;-70
2022/07/26 01:43:04;;;;;;;60.00;50.10;;;25.20;54.40;;;;;;5000454;27;94749;-71
2022/07/26 01:45:30;;;;;;;60.75;50.00;;;25.20;54.40;;;;;;4994738;27;95104;-70
2022/07/26 01:47:56;;;;;;;60.08;50.05;;;25.10;54.40;;;;;;5005710;27;95465;-71
2022/07/26 01:50:21;;;;;;;60.85;50.08;;;25.10;54.40;;;;;;4973218;27;97426;-70
2022/07/26 01:52:47;;;;;;;61.08;50.25;;;25.10;54.40;;;;;;4987841;27;96098;-70
2022/07/26 01:55:13;;;;;;;60.13;50.15;;;25.10;54.50;;;;;;4998807;27;95844;-70
2022/07/26 01:57:38;;;;;;;60.47;50.20;;;25.10;54.50;;;;;;5000600;27;95022;-71
2022/07/26 02:00:05;;;;;;;60.85;50.05;;;25.10;54.50;;;;;;4980096;27;96176;-70
2022/07/26 02:02:31;;;;;;;61.97;49.92;;;25.10;54.40;;;;;;4994539;27;95400;-71
2022/07/26 02:05:00;;;;;;;63.08;50.38;;;25.10;54.50;;;;;;4995044;27;97929;-70
2022/07/26 02:07:27;;;;;;;61.55;50.10;;;25.10;54.50;;;;;;4992621;27;103510;-70
2022/07/26 02:09:53;;;;;;;61.17;50.08;;;25.10;54.40;;;;;;4990840;27;97830;-71
2022/07/26 02:12:19;;;;;;;59.92;50.13;;;25.10;54.40;;;;;;4989982;27;100892;-70
2022/07/26 02:14:44;;;;;;;61.00;50.15;;;25.10;54.40;;;;;;4995331;27;96107;-71
2022/07/26 02:17:10;;;;;;;60.13;50.08;;;25.10;54.40;;;;;;4998680;27;96068;-70
2022/07/26 02:19:36;;;;;;;60.42;50.15;;;25.10;54.50;;;;;;5005169;27;102235;-70
2022/07/26 02:22:02;;;;;;;60.15;50.00;;;25.10;54.50;;;;;;4977806;27;96901;-70
2022/07/26 02:24:28;;;;;;;60.15;50.05;;;25.10;54.50;;;;;;5001600;27;96124;-71
2022/07/26 02:26:55;;;;;;;60.97;50.15;;;25.10;54.50;;;;;;4997784;27;94733;-71
2022/07/26 02:29:20;;;;;;;62.58;50.22;;;25.10;54.50;;;;;;4970661;27;99805;-71
2022/07/26 02:31:46;;;;;;;60.05;50.05;;;25.00;55.10;;;;;;4998681;27;95071;-70
2022/07/26 02:34:12;;;;;;;60.97;50.25;;;25.10;54.60;;;;;;4971807;27;96076;-70
2022/07/26 02:36:37;;;;;;;60.20;50.25;;;25.00;54.60;;;;;;4983547;27;103572;-71
2022/07/26 02:39:03;;;;;;;60.40;50.03;;;25.00;54.50;;;;;;5002080;27;96643;-70
2022/07/26 02:41:30;;;;;;;60.88;50.03;;;25.00;54.60;;;;;;4998407;27;97012;-70
2022/07/26 02:43:56;;;;;;;59.83;50.10;;;25.00;54.50;;;;;;4986011;27;97491;-70
2022/07/26 02:46:21;;;;;;;60.05;50.03;;;25.00;54.50;;;;;;4995338;27;95454;-70
2022/07/26 02:48:47;;;;;;;60.10;50.15;;;25.00;54.60;;;;;;4978338;27;98027;-70
2022/07/26 02:51:12;;;;;;;60.00;49.85;;;25.00;54.60;;;;;;4996543;27;95932;-71
2022/07/26 02:53:38;;;;;;;59.75;49.95;;;25.00;54.60;;;;;;5024539;27;94955;-71
2022/07/26 02:56:04;;;;;;;60.45;50.03;;;25.00;54.60;;;;;;4993269;27;94371;-71
2022/07/26 02:58:30;;;;;;;60.67;50.25;;;25.00;54.70;;;;;;4993775;27;95174;-70
2022/07/26 03:00:55;;;;;;;60.47;50.10;;;25.00;54.60;;;;;;5008615;27;95829;-71
2022/07/26 03:03:21;;;;;;;60.80;50.10;;;25.00;54.60;;;;;;4992326;27;96030;-70
2022/07/26 03:05:47;;;;;;;61.85;50.25;;;25.00;54.70;;;;;;4984490;27;97519;-70
2022/07/26 03:08:13;;;;;;;60.17;50.10;;;25.00;54.60;;;;;;4988345;27;97738;-70
2022/07/26 03:10:38;;;;;;;60.10;50.03;;;25.00;54.60;;;;;;4996784;27;95002;-70
2022/07/26 03:13:04;;;;;;;60.45;49.85;;;25.00;54.60;;;;;;5001556;27;94928;-71
2022/07/26 03:15:30;;;;;;;59.90;50.08;;;25.00;54.70;;;;;;5001653;27;95120;-70
2022/07/26 03:17:56;;;;;;;59.78;50.00;;;24.90;54.70;;;;;;4996739;27;101714;-72
2022/07/26 03:20:21;;;;;;;60.38;50.17;;;24.90;54.70;;;;;;4997042;27;99783;-71
2022/07/26 03:22:47;;;;;;;60.72;50.03;;;24.90;54.70;;;;;;4990965;27;98072;-70
2022/07/26 03:25:13;;;;;;;61.75;50.15;;;24.90;54.70;;;;;;5006231;27;100595;-71
2022/07/26 03:27:39;;;;;;;59.72;49.92;;;24.90;54.80;;;;;;5002069;27;97377;-70
2022/07/26 03:30:06;;;;;;;60.50;49.92;;;24.90;54.80;;;;;;4980339;27;96215;-70
2022/07/26 03:32:32;;;;;;;61.42;50.22;;;24.90;54.80;;;;;;4985263;27;97380;-70
2022/07/26 03:34:58;;;;;;;61.28;50.08;;;24.90;54.80;;;;;;5001533;27;95854;-70
2022/07/26 03:37:24;;;;;;;59.88;49.88;;;24.90;54.80;;;;;;4998064;27;97163;-71
2022/07/26 03:39:49;;;;;;;59.42;49.85;;;24.90;54.80;;;;;;4989554;27;94947;-71
2022/07/26 03:42:16;;;;;;;60.00;49.88;;;24.80;54.80;;;;;;4999802;27;95807;-71
2022/07/26 03:44:42;;;;;;;60.30;49.90;;;24.80;54.80;;;;;;4987295;27;96547;-71
2022/07/26 03:47:08;;;;;;;60.40;49.88;;;24.80;54.80;;;;;;5000164;27;96615;-70
2022/07/26 03:49:33;;;;;;;60.03;49.95;;;24.80;54.80;;;;;;5012267;27;96262;-71
2022/07/26 03:51:59;;;;;;;60.47;49.83;;;24.80;54.80;;;;;;4995168;27;97517;-71
2022/07/26 03:54:25;;;;;;;60.65;49.80;;;24.80;54.80;;;;;;4997610;27;95654;-71
2022/07/26 03:56:50;;;;;;;60.17;50.00;;;24.90;54.90;;;;;;4978759;27;96952;-71
2022/07/26 03:59:19;;;;;;;60.15;49.97;;;24.90;54.90;;;;;;4994584;27;96312;-71
2022/07/26 04:01:47;;;;;;;60.60;49.75;;;24.90;54.90;;;;;;4998745;27;95114;-70
2022/07/26 04:04:14;;;;;;;60.88;50.05;;;24.80;54.80;;;;;;4992924;27;96495;-71
2022/07/26 04:06:40;;;;;;;60.40;49.97;;;24.80;54.80;;;;;;4981082;27;95365;-70
2022/07/26 04:09:06;;;;;;;61.03;50.13;;;24.80;54.80;;;;;;4992761;27;96760;-71
2022/07/26 04:11:32;;;;;;;59.75;49.88;;;24.80;54.90;;;;;;5006053;27;95207;-71
2022/07/26 04:13:59;;;;;;;60.42;50.15;;;24.80;55.00;;;;;;4999666;27;96140;-70
2022/07/26 04:16:25;;;;;;;60.85;50.13;;;24.80;55.10;;;;;;4981360;27;96661;-72
2022/07/26 04:18:51;;;;;;;59.65;49.90;;;24.80;55.10;;;;;;4980276;27;96823;-71
2022/07/26 04:21:17;;;;;;;60.63;50.15;;;24.80;55.10;;;;;;4998171;27;97215;-71
2022/07/26 04:23:43;;;;;;;60.42;49.85;;;24.80;55.10;;;;;;5005073;27;105089;-71
2022/07/26 04:26:08;;;;;;;60.40;50.22;;;24.80;55.20;;;;;;4995852;27;97865;-71
2022/07/26 04:28:34;;;;;;;59.00;49.88;;;24.80;55.20;;;;;;5003171;27;96600;-71
2022/07/26 04:31:00;;;;;;;60.20;49.97;;;24.80;55.20;;;;;;5000858;27;96279;-70
2022/07/26 04:33:26;;;;;;;60.05;49.47;;;24.80;55.20;;;;;;5009507;27;94364;-71
2022/07/26 04:35:52;;;;;;;60.22;49.90;;;24.70;55.20;;;;;;5002265;27;94585;-71
2022/07/26 04:38:18;;;;;;;59.90;50.00;;;24.70;55.20;;;;;;5003998;27;99558;-71
2022/07/26 04:40:44;;;;;;;60.08;49.95;;;24.80;55.20;;;;;;4994291;27;96590;-71
2022/07/26 04:43:10;;;;;;;58.88;49.58;;;24.80;55.10;;;;;;4997400;27;95339;-71
2022/07/26 04:45:36;;;;;;;59.25;49.55;;;24.80;55.10;;;;;;5007905;27;95766;-71
2022/07/26 04:48:02;;;;;;;61.15;50.00;;;24.80;55.10;;;;;;5004255;27;95439;-71
2022/07/26 04:50:28;;;;;;;59.80;49.72;;;24.80;55.10;;;;;;4995520;27;96104;-70
2022/07/26 04:52:54;;;;;;;61.58;49.72;;;24.80;55.10;;;;;;5002566;27;96188;-70
2022/07/26 04:55:20;;;;;;;59.72;49.75;;;24.70;55.10;;;;;;5003869;27;96190;-71
2022/07/26 04:57:46;;;;;;;61.65;50.05;;;24.80;55.20;;;;;;5007197;27;94915;-71
2022/07/26 05:00:13;;;;;;;60.17;49.95;;;24.70;55.20;;;;;;4990727;27;99085;-71
2022/07/26 05:02:39;;;;;;;59.67;50.05;;;24.70;55.30;;;;;;4995105;27;95276;-71
2022/07/26 05:05:06;;;;;;;61.15;50.20;;;24.80;55.20;;;;;;4999747;27;96120;-71
2022/07/26 05:07:46;;;;;;;59.88;49.78;;;24.80;55.20;;;;;;5009425;27;95974;-71
2022/07/26 05:10:13;;;;;;;60.05;49.90;;;24.80;55.20;;;;;;4999453;27;97640;-71
2022/07/26 05:12:39;;;;;;;60.05;49.80;;;24.80;55.30;;;;;;4992453;27;104343;-71
2022/07/26 05:15:05;;;;;;;59.58;49.72;;;24.80;55.30;;;;;;4994816;27;95086;-71
2022/07/26 05:17:31;;;;;;;59.08;49.63;;;24.70;55.20;;;;;;5009159;27;95590;-71
2022/07/26 05:19:57;;;;;;;59.95;49.92;;;24.70;55.20;;;;;;4975101;28;94713;-71
2022/07/26 05:22:22;;;;;;;59.50;49.85;;;24.80;55.30;;;;;;4987912;27;94317;-71
2022/07/26 05:24:48;;;;;;;60.35;50.10;;;24.80;55.20;;;;;;4999584;27;95774;-70
2022/07/26 05:27:14;;;;;;;59.17;49.75;;;24.80;55.40;;;;;;5004788;27;97896;-72
2022/07/26 05:29:39;;;;;;;60.08;49.90;;;24.80;55.40;;;;;;4996175;27;96137;-71
2022/07/26 05:32:05;;;;;;;59.35;49.85;;;24.70;55.40;;;;;;4998912;27;96515;-72
2022/07/26 05:34:31;;;;;;;59.95;49.67;;;24.80;55.50;;;;;;5000117;27;98324;-71
2022/07/26 05:36:56;;;;;;;59.53;49.92;;;24.70;55.60;;;;;;4994366;27;95223;-70
2022/07/26 05:39:22;;;;;;;59.50;49.88;;;24.80;55.70;;;;;;4993377;27;97121;-71
2022/07/26 05:41:48;;;;;;;59.13;49.72;;;24.70;55.70;;;;;;5007138;27;96107;-71
2022/07/26 05:44:14;;;;;;;60.63;49.80;;;24.70;55.70;;;;;;5009451;27;95051;-71
2022/07/26 05:46:39;;;;;;;60.50;49.72;;;24.70;55.80;;;;;;4998605;27;94319;-71
2022/07/26 05:49:05;;;;;;;60.17;49.88;;;24.70;55.80;;;;;;4990888;27;94916;-72
2022/07/26 05:51:32;;;;;;;59.42;49.70;;;24.70;55.80;;;;;;4986983;27;95431;-72
2022/07/26 05:53:57;;;;;;;60.88;50.13;;;24.80;55.80;;;;;;4981367;28;99056;-72
2022/07/26 05:56:23;;;;;;;59.58;50.03;;;24.70;55.80;;;;;;5001591;27;94954;-72
2022/07/26 05:58:48;;;;;;;60.78;49.90;;;24.70;55.80;;;;;;4993943;27;95105;-72
2022/07/26 06:01:14;;;;;;;60.63;50.22;;;24.70;55.90;;;;;;5002003;27;96867;-72
2022/07/26 06:03:40;;;;;;;61.88;50.38;;;24.70;55.90;;;;;;5015296;27;96609;-73
2022/07/26 06:06:05;;;;;;;59.78;49.85;;;24.70;55.90;;;;;;5000201;27;97679;-74
2022/07/26 06:08:33;;;;;;;59.92;50.15;;;24.70;55.90;;;;;;4998217;27;95500;-72
2022/07/26 06:10:59;;;;;;;60.63;50.10;;;24.70;56.00;;;;;;5009649;27;95019;-72
2022/07/26 06:13:24;;;;;;;61.63;49.95;;;24.70;55.90;;;;;;4983735;27;95352;-72
2022/07/26 06:15:50;;;;;;;59.55;49.95;;;24.70;55.90;;;;;;4983041;27;97034;-72
2022/07/26 06:18:16;;;;;;;60.63;50.10;;;24.70;55.80;;;;;;4992993;27;96140;-72
2022/07/26 06:20:43;;;;;;;59.88;49.95;;;24.70;55.80;;;;;;4991216;27;95190;-73
2022/07/26 06:23:10;;;;;;;60.08;50.15;;;24.70;55.80;;;;;;5011351;27;97705;-73
2022/07/26 06:25:35;;;;;;;59.85;49.92;;;24.70;55.90;;;;;;4992115;27;96139;-71
2022/07/26 06:28:06;;;;;;;61.15;50.30;;;24.70;55.80;;;;;;4995680;27;95280;-71
2022/07/26 06:30:32;;;;;;;59.95;49.95;;;24.70;55.80;;;;;;5003390;27;100927;-71
2022/07/26 06:32:57;;;;;;;61.33;50.13;;;24.70;55.70;;;;;;4986898;27;95428;-71
2022/07/26 06:35:23;;;;;;;61.30;50.22;;;24.70;55.60;;;;;;4999415;27;100309;-71
2022/07/26 06:37:49;;;;;;;60.28;50.15;;;24.70;55.60;;;;;;5014298;27;94604;-71
2022/07/26 06:40:15;;;;;;;61.55;50.15;;;24.70;55.60;;;;;;5003264;27;96519;-72
2022/07/26 06:42:41;;;;;;;61.22;50.30;;;24.70;55.50;;;;;;4996362;27;96924;-72
2022/07/26 06:45:07;;;;;;;59.90;50.15;;;24.70;55.30;;;;;;4995535;27;96356;-71
2022/07/26 06:47:34;;;;;;;62.13;50.17;;;24.70;55.50;;;;;;5009690;27;95511;-71
2022/07/26 06:50:00;;;;;;;62.28;50.22;;;24.70;55.50;;;;;;5003086;27;97526;-71
2022/07/26 06:52:25;;;;;;;60.33;49.92;;;24.70;55.40;;;;;;4981577;28;96121;-72
2022/07/26 06:54:51;;;;;;;59.90;50.00;;;24.70;55.50;;;;;;4980966;28;97899;-72
2022/07/26 06:57:17;;;;;;;59.20;50.00;;;24.70;55.60;;;;;;5012758;27;94694;-71
2022/07/26 06:59:42;;;;;;;60.25;50.05;;;24.70;55.60;;;;;;4998548;27;93959;-71
2022/07/26 07:02:08;;;;;;;61.00;50.03;;;24.70;55.70;;;;;;5009607;27;98221;-72
2022/07/26 07:04:34;;;;;;;60.15;50.00;;;24.70;55.70;;;;;;5002593;27;96040;-71
2022/07/26 07:07:04;;;;;;;61.47;50.22;;;24.70;55.70;;;;;;5011331;27;96318;-72
2022/07/26 07:09:31;;;;;;;60.20;50.03;;;24.70;55.70;;;;;;4993881;27;95039;-72
2022/07/26 07:11:57;;;;;;;61.08;49.97;;;24.70;55.70;;;;;;4994174;27;96141;-71
2022/07/26 07:14:22;;;;;;;59.67;50.03;;;24.70;55.80;;;;;;5005752;27;95035;-71
2022/07/26 07:16:48;;;;;;;59.50;50.00;;;24.70;55.50;;;;;;4998384;27;96685;-71
2022/07/26 07:19:13;;;;;;;60.03;50.03;;;24.70;55.60;;;;;;4993478;27;95889;-71
2022/07/26 07:21:39;;;;;;;60.53;50.13;;;24.70;55.70;;;;;;5010747;27;95951;-71
2022/07/26 07:24:05;;;;;;;60.13;50.05;;;24.70;55.60;;;;;;5003321;27;94799;-72
2022/07/26 07:26:31;;;;;;;59.55;49.95;;;24.70;55.70;;;;;;5008341;27;98981;-71
2022/07/26 07:28:57;;;;;;;59.60;50.15;;;24.70;55.70;;;;;;5001177;27;95050;-71
2022/07/26 07:31:23;;;;;;;60.63;49.85;;;24.70;55.50;;;;;;5012818;27;96225;-71
2022/07/26 07:33:49;;;;;;;60.90;50.05;;;24.70;55.60;;;;;;5015964;27;97500;-71
2022/07/26 07:36:14;;;;;;;62.47;50.22;;;24.70;55.70;;;;;;4992108;27;97619;-71
2022/07/26 07:38:40;;;;;;;63.05;50.38;;;24.70;55.70;;;;;;4996113;27;94782;-71
2022/07/26 07:41:05;;;;;;;60.50;50.28;;;24.70;55.50;;;;;;5007997;27;102024;-71
2022/07/26 07:43:31;;;;;;;60.13;50.30;;;24.80;55.70;;;;;;5003717;27;96713;-72
2022/07/26 07:45:57;;;;;;;61.42;50.30;;;24.80;55.60;;;;;;5003893;27;97455;-72
2022/07/26 07:48:22;;;;;;;61.28;50.55;;;24.80;55.70;;;;;;5000720;27;95783;-71
2022/07/26 07:50:48;;;;;;;61.08;50.35;;;24.80;55.60;;;;;;5003949;27;95110;-71
2022/07/26 07:53:14;;;;;;;59.72;50.17;;;24.80;55.60;;;;;;5006081;27;96559;-72
2022/07/26 07:55:39;;;;;;;60.65;50.30;;;24.80;55.60;;;;;;5009630;27;95940;-72
2022/07/26 07:58:05;;;;;;;60.40;50.35;;;24.80;55.60;;;;;;5010003;27;96145;-71
2022/07/26 08:00:31;;;;;;;60.15;50.20;;;24.80;55.60;;;;;;5009086;27;95239;-72
2022/07/26 08:02:56;;;;;;;59.95;50.10;;;24.80;55.40;;;;;;5001470;27;97204;-71
2022/07/26 08:05:22;;;;;;;61.88;50.55;;;24.90;55.40;;;;;;4991145;27;96481;-71
2022/07/26 08:07:48;;;;;;;60.70;50.22;;;24.90;55.40;;;;;;4996817;27;95533;-72
2022/07/26 08:10:13;;;;;;;60.33;50.25;;;24.90;55.40;;;;;;4992028;27;95461;-71
2022/07/26 08:12:39;;;;;;;60.20;50.25;;;24.90;55.50;;;;;;4998942;27;94565;-71
2022/07/26 08:15:05;;;;;;;60.60;50.58;;;24.80;55.50;;;;;;5001520;27;95931;-71
2022/07/26 08:17:31;;;;;;;60.97;50.38;;;24.90;55.60;;;;;;5011953;27;96491;-71
2022/07/26 08:19:56;;;;;;;62.15;50.83;;;24.90;55.50;;;;;;4997807;28;96370;-72
2022/07/26 08:22:22;;;;;;;61.97;50.55;;;24.90;55.60;;;;;;5014873;27;99183;-71
2022/07/26 08:24:48;;;;;;;60.03;50.10;;;24.90;55.50;;;;;;5002120;27;95208;-71
2022/07/26 08:27:13;;;;;;;61.00;50.53;;;24.90;55.40;;;;;;5011063;28;95466;-71
2022/07/26 08:29:39;;;;;;;61.78;50.58;;;25.00;55.50;;;;;;4997573;27;96464;-71
2022/07/26 08:32:05;;;;;;;61.53;50.65;;;24.90;55.40;;;;;;5003057;27;94947;-72
2022/07/26 08:34:31;;;;;;;60.28;50.35;;;24.90;55.30;;;;;;4992779;27;94808;-71
2022/07/26 08:36:56;;;;;;;62.05;50.42;;;24.90;55.40;;;;;;4995977;27;97477;-71
2022/07/26 08:39:22;;;;;;;60.70;50.55;;;24.90;55.30;;;;;;4960870;27;97297;-71
2022/07/26 08:41:48;;;;;;;60.95;50.72;;;25.00;55.20;;;;;;4993884;27;95272;-71
2022/07/26 08:44:13;;;;;;;61.15;50.75;;;24.90;55.20;;;;;;5011555;27;95585;-72
2022/07/26 08:46:41;;;;;;;61.25;50.40;;;24.90;55.30;;;;;;4994820;27;97979;-72
2022/07/26 08:49:08;;;;;;;61.88;50.58;;;24.90;55.30;;;;;;5000141;27;97076;-71
2022/07/26 08:51:38;;;;;;;61.53;50.63;;;24.90;55.30;;;;;;5012522;27;98850;-71
2022/07/26 08:54:04;;;;;;;61.63;50.78;;;24.90;55.30;;;;;;5011337;27;94954;-71
2022/07/26 08:56:30;;;;;;;61.92;50.65;;;24.90;55.30;;;;;;4998728;27;96032;-72
2022/07/26 08:58:56;;;;;;;62.60;50.55;;;24.90;55.20;;;;;;4978775;27;96075;-72
2022/07/26 09:01:21;;;;;;;61.70;50.60;;;25.00;55.20;;;;;;4997224;27;94814;-71
2022/07/26 09:03:47;;;;;;;61.10;50.65;;;25.00;55.30;;;;;;5002993;27;95247;-72
2022/07/26 09:06:19;;;;;;;61.03;50.55;;;25.00;55.20;;;;;;4986316;28;100994;-71
2022/07/26 09:08:48;;;;;;;62.60;50.80;;;25.00;55.10;;;;;;4996434;27;100659;-71
2022/07/26 09:11:23;;;;;;;62.45;50.40;;;25.00;55.10;;;;;;5010222;27;96001;-71
2022/07/26 09:13:59;;;;;;;60.90;50.63;;;25.00;55.10;;;;;;5015322;27;95398;-72
2022/07/26 09:16:25;;;;;;;61.20;50.65;;;25.00;55.10;;;;;;4990533;28;96417;-71
2022/07/26 09:18:51;;;;;;;61.55;50.65;;;25.10;55.60;;;;;;4997969;27;95416;-71
2022/07/26 09:21:37;;;;;;;61.30;50.55;;;25.10;55.10;;;;;;4997775;27;97582;-71
2022/07/26 09:24:03;;;;;;;60.72;50.47;;;25.10;55.10;;;;;;4990593;27;102962;-72
2022/07/26 09:26:29;;;;;;;61.58;50.42;;;25.10;55.10;;;;;;5013299;27;94773;-71
2022/07/26 09:29:07;;;;;;;62.15;50.65;;;25.10;55.00;;;;;;5002056;27;95257;-72
2022/07/26 09:31:34;;;;;;;60.60;50.60;;;25.10;54.90;;;;;;4987170;27;97038;-71
2022/07/26 09:34:00;;;;;;;61.08;50.60;;;25.20;55.00;;;;;;4985626;27;98778;-72
2022/07/26 09:36:26;;;;;;;61.22;50.50;;;25.20;55.00;;;;;;4969128;28;94705;-71
2022/07/26 09:38:57;;;;;;;62.70;50.80;;;25.20;54.90;;;;;;4993527;27;99712;-71
2022/07/26 09:41:28;;;;;;;60.70;50.57;;;25.20;54.80;;;;;;4996287;27;95044;-71
2022/07/26 09:44:00;;;;;;;60.80;50.53;;;25.30;54.80;;;;;;4993292;27;97485;-72
2022/07/26 09:46:27;;;;;;;61.70;50.85;;;25.20;54.80;;;;;;5013557;27;96524;-71
2022/07/26 09:48:54;;;;;;;61.67;50.50;;;25.30;54.80;;;;;;5005590;27;101824;-71
2022/07/26 09:51:44;;;;;;;60.95;50.55;;;25.30;54.90;;;;;;5000065;27;94124;-71
2022/07/26 09:54:15;;;;;;;61.53;50.50;;;25.30;54.90;;;;;;4994251;27;96004;-71
2022/07/26 09:56:51;;;;;;;61.75;50.90;;;25.30;55.00;;;;;;5000379;27;95039;-71
2022/07/26 09:59:19;;;;;;;60.92;50.72;;;25.40;55.60;;;;;;4996273;27;97097;-71
2022/07/26 10:01:45;;;;;;;61.75;50.65;;;25.40;54.90;;;;;;5007652;28;96078;-71
2022/07/26 10:04:11;;;;;;;61.08;50.58;;;25.40;54.70;;;;;;4986436;28;96569;-72
2022/07/26 10:06:37;;;;;;;61.85;50.58;;;25.40;54.80;;;;;;4995699;27;95588;-71
2022/07/26 10:09:04;;;;;;;61.00;50.60;;;25.40;54.70;;;;;;5009159;28;96956;-71
2022/07/26 10:11:40;;;;;;;62.60;50.58;;;25.40;54.80;;;;;;5020359;27;96041;-71
2022/07/26 10:14:31;;;;;;;62.33;50.60;;;25.40;54.70;;;;;;4995254;27;95104;-71
2022/07/26 10:16:57;;;;;;;61.05;50.58;;;25.40;54.80;;;;;;5004093;27;105285;-71
2022/07/26 10:19:39;;;;;;;61.15;50.65;;;25.40;54.80;;;;;;4980895;28;100151;-72
2022/07/26 10:22:24;;;;;;;62.17;50.78;;;25.40;54.90;;;;;;5008685;27;95185;-72
2022/07/26 10:24:51;;;;;;;61.63;50.72;;;25.40;54.80;;;;;;4990581;28;96152;-72
2022/07/26 10:27:36;;;;;;;61.28;50.75;;;25.40;54.80;;;;;;4996500;27;96483;-71
2022/07/26 10:30:21;;;;;;;61.60;50.83;;;25.50;54.80;;;;;;5001289;27;95854;-71
2022/07/26 10:32:52;;;;;;;62.10;50.95;;;25.50;54.80;;;;;;4999388;27;96156;-71
2022/07/26 10:35:33;;;;;;;61.25;50.70;;;25.50;54.90;;;;;;5009630;27;95347;-71
2022/07/26 10:38:00;;;;;;;61.53;50.58;;;25.50;54.80;;;;;;4990395;27;95249;-72
2022/07/26 10:40:29;;;;;;;61.92;50.75;;;25.50;54.80;;;;;;4995350;27;95496;-71
2022/07/26 10:43:16;;;;;;;61.85;50.92;;;25.50;54.90;;;;;;5006309;27;95539;-72
2022/07/26 10:45:42;;;;;;;61.97;50.58;;;25.50;54.90;;;;;;5017926;27;95662;-72
2022/07/26 10:48:11;;;;;;;62.45;50.90;;;25.50;55.00;;;;;;5005816;27;95762;-72
2022/07/26 10:50:37;;;;;;;61.35;50.85;;;25.50;55.00;;;;;;5001269;27;96546;-73
2022/07/26 10:53:03;;;;;;;60.97;50.88;;;25.60;55.00;;;;;;4999041;27;96084;-72
2022/07/26 10:55:29;;;;;;;61.50;50.85;;;25.60;55.10;;;;;;5005430;27;100852;-72
2022/07/26 10:57:55;;;;;;;61.30;50.90;;;25.60;55.00;;;;;;5011914;27;95207;-71
2022/07/26 11:00:25;;;;;;;61.60;51.15;;;25.60;55.00;;;;;;5005201;27;95784;-72
2022/07/26 11:02:58;;;;;;;62.13;50.85;;;25.60;54.90;;;;;;5001276;27;96208;-71
2022/07/26 11:05:29;;;;;;;61.58;50.70;;;25.60;54.90;;;;;;5008246;27;97657;-72
2022/07/26 11:08:08;;;;;;;;;;;25.60;54.70;;;;;;5012941;27;94573;-72
2022/07/26 11:10:34;;;;;;;61.33;50.92;;;25.60;54.70;;;;;;4994079;27;101752;-71
2022/07/26 11:13:14;;;;;;;61.40;50.63;;;25.70;54.60;;;;;;4999323;27;94792;-72
2022/07/26 11:15:42;;;;;;;61.40;50.92;;;25.60;54.70;;;;;;4991792;27;97172;-71
2022/07/26 11:18:21;;;;;;;62.50;50.97;;;25.60;54.80;;;;;;4999430;27;96159;-71
2022/07/26 11:20:49;;;;;;;61.22;50.90;;;25.70;54.70;;;;;;5010226;27;95905;-71
2022/07/26 11:23:25;;;;;;;61.17;50.83;;;25.70;54.80;;;;;;4995376;27;96381;-71
2022/07/26 11:26:07;;;;;;;61.38;50.97;;;25.70;55.00;;;;;;4980832;27;101616;-71
2022/07/26 11:28:59;;;;;;;62.00;51.05;;;25.70;54.80;;;;;;4978308;27;94960;-72
2022/07/26 11:31:33;;;;;;;61.65;50.90;;;25.70;54.80;;;;;;4996459;27;96083;-72
2022/07/26 11:33:58;;;;;;;61.63;50.97;;;25.70;54.90;;;;;;5001514;27;94296;-72
2022/07/26 11:36:31;;;;;;;62.15;50.95;;;25.70;55.00;;;;;;4987100;27;96220;-72
2022/07/26 11:38:57;;;;;;;61.83;51.03;;;25.70;55.00;;;;;;5007761;27;96267;-71
2022/07/26 11:41:26;;;;;;;62.13;51.08;;;25.70;55.20;;;;;;5003598;27;96775;-71
2022/07/26 11:43:52;;;;;;;61.42;50.85;;;25.60;55.20;;;;;;5001108;27;96464;-72
2022/07/26 11:46:19;;;;;;;61.08;50.85;;;25.60;55.20;;;;;;4988927;27;95128;-71
2022/07/26 11:48:50;;;;;;;60.90;50.78;;;25.70;55.20;;;;;;5002836;27;95049;-72
2022/07/26 11:51:23;;;;;;;62.10;50.95;;;25.70;55.20;;;;;;4999784;27;97044;-72
2022/07/26 11:53:50;;;;;;;62.75;51.05;;;25.70;55.10;;;;;;5006250;27;95518;-72
2022/07/26 11:56:22;;;;;;;62.28;51.05;;;25.70;55.20;;;;;;5004582;27;94819;-72
2022/07/26 11:58:50;;;;;;;61.88;51.20;;;25.70;55.10;;;;;;5003030;27;94517;-73
2022/07/26 12:01:18;;;;;;;61.38;50.70;;;25.70;55.10;;;;;;5012407;27;98830;-72
2022/07/26 12:03:47;;;;;;;61.85;50.90;;;25.70;55.20;;;;;;4996550;27;96077;-72
2022/07/26 12:06:16;;;;;;;61.22;50.80;;;25.70;55.10;;;;;;4988842;27;96796;-72
2022/07/26 12:08:53;;;;;;;63.03;51.25;;;25.70;55.10;;;;;;4985817;28;96842;-72
2022/07/26 12:11:21;;;;;;;62.08;50.95;;;25.70;55.20;;;;;;5005969;27;95307;-72
2022/07/26 12:14:06;;;;;;;61.95;50.92;;;25.80;55.30;;;;;;4997297;27;96496;-72
2022/07/26 12:16:46;;;;;;;61.95;51.03;;;25.70;55.20;;;;;;5011027;27;97056;-72
2022/07/26 12:19:17;;;;;;;61.22;50.83;;;25.70;55.40;;;;;;4998384;27;95290;-72
2022/07/26 12:21:47;;;;;;;61.72;50.95;;;25.70;55.50;;;;;;4989647;27;98352;-72
2022/07/26 12:24:38;;;;;;;61.47;50.92;;;25.70;55.50;;;;;;4994251;27;96199;-72
2022/07/26 12:27:21;;;;;;;61.45;50.90;;;25.70;55.50;;;;;;4992536;27;94621;-72